Time,TemperatureF,DewpointF,PressureIn,WindDirection,WindDirectionDegrees,WindSpeedMPH,WindSpeedGustMPH,Humidity,HourlyPrecipIn,Conditions,Clouds,dailyrainin,SoftwareType,DateUTC
2013-03-10 00:07:00,13.8,13.3,29.63,WSW,247,1.7,-999.0,98,-99.99,,,0.00,Acu-Link.com,2013-03-10 07:07:00,
2013-03-10 00:22:00,12.2,11.7,29.64,SW,225,0.0,-999.0,98,-99.99,,,0.00,Acu-Link.com,2013-03-10 07:22:00,
2013-03-10 00:37:00,11.8,11.3,29.65,SE,135,0.0,-999.0,98,-99.99,,,0.00,Acu-Link.com,2013-03-10 07:37:00,
2013-03-10 00:53:00,10.6,10.1,29.66,South,180,1.1,-999.0,98,-99.99,,,0.00,Acu-Link.com,2013-03-10 07:53:00,
2013-03-10 01:08:00,10.8,10.3,29.65,WSW,247,1.1,-999.0,98,-99.99,,,0.00,Acu-Link.com,2013-03-10 08:08:00,
2013-03-10 01:23:00,10.6,10.1,29.66,NW,315,0.0,-999.0,98,-99.99,,,0.00,Acu-Link.com,2013-03-10 08:23:00,
2013-03-10 01:38:00,8.4,8.0,29.67,NNW,337,0.0,-999.0,98,-99.99,,,0.00,Acu-Link.com,2013-03-10 08:38:00,
2013-03-10 01:54:00,9.5,9.1,29.67,WNW,292,1.7,-999.0,98,-99.99,,,0.00,Acu-Link.com,2013-03-10 08:54:00,
2013-03-10 03:09:00,8.6,8.2,29.67,SW,225,0.0,-999.0,98,-99.99,,,0.00,Acu-Link.com,2013-03-10 09:09:00,
2013-03-10 03:24:00,8.1,7.7,29.69,NW,315,0.0,-999.0,98,-99.99,,,0.00,Acu-Link.com,2013-03-10 09:24:00,
2013-03-10 03:40:00,6.1,5.7,29.68,WSW,247,0.0,-999.0,98,-99.99,,,0.00,Acu-Link.com,2013-03-10 09:40:00,
2013-03-10 03:55:00,6.6,6.2,29.69,NW,315,1.7,-999.0,98,-99.99,,,0.00,Acu-Link.com,2013-03-10 09:55:00,
2013-03-10 04:10:00,5.7,5.3,29.68,North,0,1.7,-999.0,98,-99.99,,,0.00,Acu-Link.com,2013-03-10 10:10:00,
2013-03-10 04:25:00,4.3,3.9,29.69,NE,45,0.0,-999.0,98,-99.99,,,0.00,Acu-Link.com,2013-03-10 10:25:00,
2013-03-10 04:40:00,5.2,4.8,29.72,NW,315,2.2,-999.0,98,-99.99,,,0.00,Acu-Link.com,2013-03-10 10:40:00,
2013-03-10 04:56:00,5.2,4.8,29.71,SSW,202,0.0,-999.0,98,-99.99,,,0.00,Acu-Link.com,2013-03-10 10:56:00,
2013-03-10 05:11:00,4.5,4.1,29.72,NE,45,0.0,-999.0,98,-99.99,,,0.00,Acu-Link.com,2013-03-10 11:11:00,
2013-03-10 05:27:00,2.8,2.4,29.75,ENE,67,2.7,-999.0,98,-99.99,,,0.00,Acu-Link.com,2013-03-10 11:27:00,
2013-03-10 05:42:00,1.8,1.4,29.74,NW,315,1.7,-999.0,98,-99.99,,,0.00,Acu-Link.com,2013-03-10 11:42:00,
2013-03-10 05:57:00,1.8,1.4,29.75,NNW,337,2.7,-999.0,98,-99.99,,,0.00,Acu-Link.com,2013-03-10 11:57:00,
2013-03-10 06:13:00,1.9,1.5,29.76,ENE,67,0.0,-999.0,98,-99.99,,,0.00,Acu-Link.com,2013-03-10 12:13:00,
2013-03-10 06:28:00,0.7,-0.4,29.77,West,270,0.0,-999.0,95,-99.99,,,0.00,Acu-Link.com,2013-03-10 12:28:00,
2013-03-10 06:43:00,0.0,-0.4,29.77,WNW,292,1.1,-999.0,98,-99.99,,,0.00,Acu-Link.com,2013-03-10 12:43:00,
2013-03-10 06:58:00,0.3,-0.1,29.77,WNW,292,0.0,-999.0,98,-99.99,,,0.00,Acu-Link.com,2013-03-10 12:58:00,
2013-03-10 07:14:00,-1.1,-2.9,29.78,NNW,337,0.0,-999.0,92,-99.99,,,0.00,Acu-Link.com,2013-03-10 13:14:00,
2013-03-10 07:29:00,-1.3,-2.2,29.79,NNW,337,1.7,-999.0,96,-99.99,,,0.00,Acu-Link.com,2013-03-10 13:29:00,
2013-03-10 07:44:00,1.6,1.2,29.79,South,180,0.0,-999.0,98,-99.99,,,0.00,Acu-Link.com,2013-03-10 13:44:00,
2013-03-10 08:00:00,9.5,9.1,29.80,ESE,112,0.0,-999.0,98,-99.99,,,0.00,Acu-Link.com,2013-03-10 14:00:00,
2013-03-10 08:15:00,15.1,14.6,29.81,NNW,337,0.0,-999.0,98,-99.99,,,0.00,Acu-Link.com,2013-03-10 14:15:00,
2013-03-10 08:30:00,15.4,13.0,29.81,NNE,22,1.7,-999.0,90,-99.99,,,0.00,Acu-Link.com,2013-03-10 14:30:00,
2013-03-10 08:46:00,9.3,7.9,29.82,ENE,67,2.2,-999.0,94,-99.99,,,0.00,Acu-Link.com,2013-03-10 14:46:00,
2013-03-10 09:01:00,12.2,7.2,29.81,NE,45,2.2,-999.0,80,-99.99,,,0.00,Acu-Link.com,2013-03-10 15:01:00,
2013-03-10 09:16:00,14.2,7.8,29.82,SSE,157,1.7,-999.0,75,-99.99,,,0.01,Acu-Link.com,2013-03-10 15:16:00,
2013-03-10 09:31:00,14.7,7.9,29.82,East,90,0.0,-999.0,74,-99.99,,,0.01,Acu-Link.com,2013-03-10 15:31:00,
2013-03-10 09:47:00,16.0,8.9,29.82,SE,135,2.2,-999.0,73,-99.99,,,0.01,Acu-Link.com,2013-03-10 15:47:00,
2013-03-10 10:02:00,21.7,10.4,29.83,NE,45,0.0,-999.0,61,-99.99,,,0.01,Acu-Link.com,2013-03-10 16:02:00,
2013-03-10 10:17:00,20.5,9.6,29.83,South,180,2.2,-999.0,62,-99.99,,,0.01,Acu-Link.com,2013-03-10 16:17:00,
2013-03-10 10:32:00,26.2,13.1,29.82,SE,135,0.0,-999.0,57,-99.99,,,0.01,Acu-Link.com,2013-03-10 16:32:00,
2013-03-10 10:48:00,27.1,14.3,29.83,SE,135,2.2,-999.0,58,-99.99,,,0.01,Acu-Link.com,2013-03-10 16:48:00,
2013-03-10 11:03:00,30.0,17.0,29.82,ESE,112,3.2,-999.0,58,-99.99,,,0.01,Acu-Link.com,2013-03-10 17:03:00,
2013-03-10 11:18:00,29.7,15.5,29.82,SE,135,2.7,-999.0,55,-99.99,,,0.01,Acu-Link.com,2013-03-10 17:18:00,
2013-03-10 11:34:00,32.4,16.8,29.81,South,180,4.7,-999.0,52,-99.99,,,0.01,Acu-Link.com,2013-03-10 17:34:00,
2013-03-10 11:49:00,35.1,17.9,29.81,SSW,202,3.7,-999.0,49,-99.99,,,0.01,Acu-Link.com,2013-03-10 17:49:00,
2013-03-10 12:20:00,35.8,17.6,29.81,SSE,157,4.7,-999.0,47,-99.99,,,0.02,Acu-Link.com,2013-03-10 18:20:00,
2013-03-10 12:35:00,36.3,16.5,29.81,SSW,202,7.8,-999.0,44,-99.99,,,0.02,Acu-Link.com,2013-03-10 18:35:00,
2013-03-10 12:50:00,36.1,18.3,29.81,SW,225,10.9,-999.0,48,-99.99,,,0.02,Acu-Link.com,2013-03-10 18:50:00,
2013-03-10 13:05:00,36.7,17.4,29.80,SW,225,5.3,-999.0,45,-99.99,,,0.02,Acu-Link.com,2013-03-10 19:05:00,
2013-03-10 13:21:00,39.0,20.5,29.81,SSW,202,5.3,-999.0,47,-99.99,,,0.02,Acu-Link.com,2013-03-10 19:21:00,
2013-03-10 13:36:00,37.6,18.7,29.79,WSW,247,6.3,-999.0,46,-99.99,,,0.02,Acu-Link.com,2013-03-10 19:36:00,
2013-03-10 14:06:00,37.8,19.4,29.79,SW,225,10.4,-999.0,47,-99.99,,,0.02,Acu-Link.com,2013-03-10 20:06:00,
2013-03-10 14:21:00,37.4,20.0,29.77,WSW,247,3.7,-999.0,49,-99.99,,,0.02,Acu-Link.com,2013-03-10 20:21:00,
2013-03-10 14:37:00,38.5,20.5,29.78,West,270,10.9,-999.0,48,-99.99,,,0.02,Acu-Link.com,2013-03-10 20:37:00,
2013-03-10 14:52:00,38.5,19.5,29.78,SE,135,5.8,-999.0,46,-99.99,,,0.02,Acu-Link.com,2013-03-10 20:52:00,
2013-03-10 15:07:00,38.3,19.9,29.77,SW,225,6.8,-999.0,47,-99.99,,,0.02,Acu-Link.com,2013-03-10 21:07:00,
2013-03-10 15:22:00,38.3,20.4,29.79,SSW,202,8.9,-999.0,48,-99.99,,,0.02,Acu-Link.com,2013-03-10 21:22:00,
2013-03-10 15:38:00,38.1,21.6,29.77,SW,225,4.7,-999.0,51,-99.99,,,0.02,Acu-Link.com,2013-03-10 21:38:00,
2013-03-10 15:53:00,37.2,20.8,29.77,SSW,202,7.8,-999.0,51,-99.99,,,0.02,Acu-Link.com,2013-03-10 21:53:00,
2013-03-10 16:08:00,36.5,21.0,29.77,SW,225,6.8,-999.0,53,-99.99,,,0.02,Acu-Link.com,2013-03-10 22:08:00,
2013-03-10 16:23:00,36.9,21.4,29.79,West,270,9.9,-999.0,53,-99.99,,,0.02,Acu-Link.com,2013-03-10 22:23:00,
2013-03-10 16:38:00,36.1,20.6,29.79,SSW,202,5.3,-999.0,53,-99.99,,,0.02,Acu-Link.com,2013-03-10 22:38:00,
2013-03-10 16:53:00,35.8,20.4,29.78,SSW,202,8.9,-999.0,53,-99.99,,,0.02,Acu-Link.com,2013-03-10 22:53:00,
2013-03-10 17:08:00,35.2,20.7,29.78,SSW,202,4.2,-999.0,55,-99.99,,,0.02,Acu-Link.com,2013-03-10 23:08:00,
2013-03-10 17:24:00,34.7,20.2,29.79,West,270,4.7,-999.0,55,-99.99,,,0.02,Acu-Link.com,2013-03-10 23:24:00,
2013-03-10 17:39:00,34.2,21.0,29.79,West,270,7.8,-999.0,58,-99.99,,,0.02,Acu-Link.com,2013-03-10 23:39:00,
2013-03-10 17:55:00,33.4,20.2,29.79,SW,225,6.3,-999.0,58,-99.99,,,0.02,Acu-Link.com,2013-03-10 23:55:00,
2013-03-10 18:10:00,32.9,20.2,29.79,SW,225,4.7,-999.0,59,-99.99,,,0.02,Acu-Link.com,2013-03-11 00:10:00,
2013-03-10 18:25:00,31.6,19.7,29.80,WSW,247,2.7,-999.0,61,-99.99,,,0.02,Acu-Link.com,2013-03-11 00:25:00,
2013-03-10 18:41:00,30.9,19.4,29.82,WSW,247,5.3,-999.0,62,-99.99,,,0.02,Acu-Link.com,2013-03-11 00:41:00,
2013-03-10 18:56:00,29.1,19.9,29.82,SSW,202,5.8,-999.0,68,-99.99,,,0.02,Acu-Link.com,2013-03-11 00:56:00,
2013-03-10 19:42:00,25.2,18.1,29.86,South,180,4.2,-999.0,74,-99.99,,,0.02,Acu-Link.com,2013-03-11 01:42:00,
2013-03-10 19:57:00,25.7,18.3,29.85,WSW,247,2.2,-999.0,73,-99.99,,,0.02,Acu-Link.com,2013-03-11 01:57:00,
2013-03-10 20:12:00,24.8,18.0,29.85,WNW,292,1.7,-999.0,75,-99.99,,,0.02,Acu-Link.com,2013-03-11 02:12:00,
2013-03-10 20:27:00,23.0,17.5,29.85,North,0,2.7,-999.0,79,-99.99,,,0.02,Acu-Link.com,2013-03-11 02:27:00,
2013-03-10 20:43:00,22.3,17.7,29.87,NNW,337,1.1,-999.0,82,-99.99,,,0.02,Acu-Link.com,2013-03-11 02:43:00,
2013-03-10 20:58:00,21.6,17.5,29.88,WSW,247,1.7,-999.0,84,-99.99,,,0.02,Acu-Link.com,2013-03-11 02:58:00,
2013-03-10 21:13:00,20.5,16.4,29.86,South,180,2.7,-999.0,84,-99.99,,,0.02,Acu-Link.com,2013-03-11 03:13:00,
2013-03-10 21:28:00,20.7,17.2,29.86,South,180,4.2,-999.0,86,-99.99,,,0.02,Acu-Link.com,2013-03-11 03:28:00,
2013-03-10 21:43:00,19.8,17.1,29.88,SW,225,2.7,-999.0,89,-99.99,,,0.02,Acu-Link.com,2013-03-11 03:43:00,
2013-03-10 21:59:00,19.8,18.4,29.90,WSW,247,2.2,-999.0,94,-99.99,,,0.02,Acu-Link.com,2013-03-11 03:59:00,
2013-03-10 22:14:00,20.5,16.7,29.89,NNW,337,1.7,-999.0,85,-99.99,,,0.02,Acu-Link.com,2013-03-11 04:14:00,
2013-03-10 22:29:00,19.9,16.4,29.90,West,270,0.0,-999.0,86,-99.99,,,0.02,Acu-Link.com,2013-03-11 04:29:00,
2013-03-10 22:45:00,18.9,17.5,29.91,South,180,0.0,-999.0,94,-99.99,,,0.02,Acu-Link.com,2013-03-11 04:45:00,
2013-03-10 23:00:00,16.5,14.3,29.91,NNE,22,0.0,-999.0,91,-99.99,,,0.02,Acu-Link.com,2013-03-11 05:00:00,
2013-03-10 23:15:00,14.7,14.2,29.91,NE,45,0.0,-999.0,98,-99.99,,,0.02,Acu-Link.com,2013-03-11 05:15:00,
2013-03-10 23:30:00,13.5,13.0,29.92,NNW,337,0.0,-999.0,98,-99.99,,,0.02,Acu-Link.com,2013-03-11 05:30:00,
2013-03-10 23:45:00,12.9,12.4,29.92,NNW,337,0.0,-999.0,98,-99.99,,,0.02,Acu-Link.com,2013-03-11 05:45:00,